sensor_id;sensor_type;location;lat;lon;timestamp;P1;durP1;ratioP1;P2;durP2;ratioP2
4756;SDS011;2392;52.578;13.426;2023-05-29T00:01:32;7.93;;;4.50;;
4756;SDS011;2392;52.578;13.426;2023-05-29T00:04:01;6.03;;;3.40;;
4756;SDS011;2392;52.578;13.426;2023-05-29T00:06:28;7.53;;;4.73;;
4756;SDS011;2392;52.578;13.426;2023-05-29T00:08:57;8.57;;;4.67;;
4756;SDS011;2392;52.578;13.426;2023-05-29T00:11:24;11.33;;;4.70;;
4756;SDS011;2392;52.578;13.426;2023-05-29T00:13:51;6.23;;;3.60;;
4756;SDS011;2392;52.578;13.426;2023-05-29T00:16:18;8.93;;;4.10;;
4756;SDS011;2392;52.578;13.426;2023-05-29T00:18:45;9.73;;;4.40;;
4756;SDS011;2392;52.578;13.426;2023-05-29T00:21:12;7.13;;;4.93;;
4756;SDS011;2392;52.578;13.426;2023-05-29T00:23:40;9.23;;;4.60;;
4756;SDS011;2392;52.578;13.426;2023-05-29T00:26:08;11.63;;;4.97;;
4756;SDS011;2392;52.578;13.426;2023-05-29T00:28:37;8.80;;;4.97;;
4756;SDS011;2392;52.578;13.426;2023-05-29T00:31:04;9.70;;;4.40;;
4756;SDS011;2392;52.578;13.426;2023-05-29T00:33:31;9.63;;;5.03;;
4756;SDS011;2392;52.578;13.426;2023-05-29T00:35:58;9.40;;;4.70;;
4756;SDS011;2392;52.578;13.426;2023-05-29T00:38:25;11.23;;;4.40;;
4756;SDS011;2392;52.578;13.426;2023-05-29T00:40:52;7.00;;;4.53;;
4756;SDS011;2392;52.578;13.426;2023-05-29T00:43:21;8.87;;;5.00;;
4756;SDS011;2392;52.578;13.426;2023-05-29T00:45:48;9.73;;;4.53;;
4756;SDS011;2392;52.578;13.426;2023-05-29T00:48:16;8.70;;;4.17;;
4756;SDS011;2392;52.578;13.426;2023-05-29T00:50:43;9.90;;;4.30;;
4756;SDS011;2392;52.578;13.426;2023-05-29T00:53:10;11.07;;;4.80;;
4756;SDS011;2392;52.578;13.426;2023-05-29T00:55:37;10.27;;;5.23;;
4756;SDS011;2392;52.578;13.426;2023-05-29T00:58:04;11.23;;;4.70;;
4756;SDS011;2392;52.578;13.426;2023-05-29T01:00:33;12.17;;;4.60;;
4756;SDS011;2392;52.578;13.426;2023-05-29T01:03:01;10.57;;;4.20;;
4756;SDS011;2392;52.578;13.426;2023-05-29T01:05:31;9.97;;;5.53;;
4756;SDS011;2392;52.578;13.426;2023-05-29T01:08:00;17.37;;;5.07;;
4756;SDS011;2392;52.578;13.426;2023-05-29T01:10:27;12.00;;;4.37;;
4756;SDS011;2392;52.578;13.426;2023-05-29T01:12:57;11.60;;;4.80;;
4756;SDS011;2392;52.578;13.426;2023-05-29T01:15:32;11.07;;;5.43;;
4756;SDS011;2392;52.578;13.426;2023-05-29T01:18:08;7.77;;;4.30;;
4756;SDS011;2392;52.578;13.426;2023-05-29T01:20:48;6.33;;;4.70;;
4756;SDS011;2392;52.578;13.426;2023-05-29T01:23:25;13.20;;;4.63;;
4756;SDS011;2392;52.578;13.426;2023-05-29T01:26:20;5.57;;;4.33;;
4756;SDS011;2392;52.578;13.426;2023-05-29T01:28:54;6.70;;;4.70;;
4756;SDS011;2392;52.578;13.426;2023-05-29T01:31:25;9.63;;;5.13;;
4756;SDS011;2392;52.578;13.426;2023-05-29T01:33:53;9.37;;;3.63;;
4756;SDS011;2392;52.578;13.426;2023-05-29T01:36:21;9.77;;;4.30;;
4756;SDS011;2392;52.578;13.426;2023-05-29T01:38:48;6.50;;;4.30;;
4756;SDS011;2392;52.578;13.426;2023-05-29T01:41:17;10.43;;;4.50;;
4756;SDS011;2392;52.578;13.426;2023-05-29T01:43:45;10.07;;;4.30;;
4756;SDS011;2392;52.578;13.426;2023-05-29T01:46:15;9.13;;;4.60;;
4756;SDS011;2392;52.578;13.426;2023-05-29T01:48:44;10.80;;;4.60;;
4756;SDS011;2392;52.578;13.426;2023-05-29T01:51:12;5.53;;;3.70;;
4756;SDS011;2392;52.578;13.426;2023-05-29T01:53:40;6.40;;;4.50;;
4756;SDS011;2392;52.578;13.426;2023-05-29T01:56:09;6.73;;;4.07;;
4756;SDS011;2392;52.578;13.426;2023-05-29T01:58:37;9.90;;;4.10;;
4756;SDS011;2392;52.578;13.426;2023-05-29T02:01:05;4.40;;;3.40;;
4756;SDS011;2392;52.578;13.426;2023-05-29T02:03:34;9.80;;;4.47;;
4756;SDS011;2392;52.578;13.426;2023-05-29T02:06:01;8.50;;;3.70;;
4756;SDS011;2392;52.578;13.426;2023-05-29T02:08:28;7.07;;;4.13;;
4756;SDS011;2392;52.578;13.426;2023-05-29T02:10:55;4.77;;;4.20;;
4756;SDS011;2392;52.578;13.426;2023-05-29T02:13:22;3.90;;;3.57;;
4756;SDS011;2392;52.578;13.426;2023-05-29T02:15:50;10.90;;;4.00;;
4756;SDS011;2392;52.578;13.426;2023-05-29T02:18:17;7.00;;;3.90;;
4756;SDS011;2392;52.578;13.426;2023-05-29T02:20:45;11.00;;;4.40;;
4756;SDS011;2392;52.578;13.426;2023-05-29T02:23:20;4.80;;;4.30;;
4756;SDS011;2392;52.578;13.426;2023-05-29T02:25:49;8.20;;;4.13;;
4756;SDS011;2392;52.578;13.426;2023-05-29T02:28:16;6.90;;;3.60;;
4756;SDS011;2392;52.578;13.426;2023-05-29T02:30:43;7.10;;;4.20;;
4756;SDS011;2392;52.578;13.426;2023-05-29T02:33:10;7.73;;;4.10;;
4756;SDS011;2392;52.578;13.426;2023-05-29T02:35:38;11.10;;;4.60;;
4756;SDS011;2392;52.578;13.426;2023-05-29T02:38:06;16.77;;;6.03;;
4756;SDS011;2392;52.578;13.426;2023-05-29T02:40:33;7.97;;;4.13;;
4756;SDS011;2392;52.578;13.426;2023-05-29T02:43:00;7.73;;;4.63;;
4756;SDS011;2392;52.578;13.426;2023-05-29T02:45:29;7.80;;;5.27;;
4756;SDS011;2392;52.578;13.426;2023-05-29T02:47:56;7.13;;;4.00;;
4756;SDS011;2392;52.578;13.426;2023-05-29T02:50:25;11.90;;;4.23;;
4756;SDS011;2392;52.578;13.426;2023-05-29T02:52:53;13.40;;;4.50;;
4756;SDS011;2392;52.578;13.426;2023-05-29T02:55:21;12.03;;;4.90;;
4756;SDS011;2392;52.578;13.426;2023-05-29T02:57:48;7.83;;;4.40;;
4756;SDS011;2392;52.578;13.426;2023-05-29T03:00:18;7.83;;;4.80;;
4756;SDS011;2392;52.578;13.426;2023-05-29T03:02:46;7.80;;;4.50;;
4756;SDS011;2392;52.578;13.426;2023-05-29T03:05:13;7.73;;;4.20;;
4756;SDS011;2392;52.578;13.426;2023-05-29T03:07:41;7.47;;;4.53;;
4756;SDS011;2392;52.578;13.426;2023-05-29T03:10:08;7.47;;;3.87;;
4756;SDS011;2392;52.578;13.426;2023-05-29T03:12:37;9.10;;;4.67;;
4756;SDS011;2392;52.578;13.426;2023-05-29T03:15:06;5.73;;;4.00;;
4756;SDS011;2392;52.578;13.426;2023-05-29T03:17:34;7.73;;;4.20;;
4756;SDS011;2392;52.578;13.426;2023-05-29T03:20:02;8.17;;;4.67;;
4756;SDS011;2392;52.578;13.426;2023-05-29T03:22:33;5.47;;;4.53;;
4756;SDS011;2392;52.578;13.426;2023-05-29T03:25:01;10.77;;;5.13;;
4756;SDS011;2392;52.578;13.426;2023-05-29T03:27:29;8.83;;;4.50;;
4756;SDS011;2392;52.578;13.426;2023-05-29T03:30:06;6.47;;;4.23;;
4756;SDS011;2392;52.578;13.426;2023-05-29T03:32:35;8.83;;;4.33;;
4756;SDS011;2392;52.578;13.426;2023-05-29T03:35:02;13.30;;;4.63;;
4756;SDS011;2392;52.578;13.426;2023-05-29T03:37:30;9.00;;;4.20;;
4756;SDS011;2392;52.578;13.426;2023-05-29T03:39:57;10.43;;;3.90;;
4756;SDS011;2392;52.578;13.426;2023-05-29T03:42:24;6.17;;;4.50;;
4756;SDS011;2392;52.578;13.426;2023-05-29T03:44:51;6.77;;;4.40;;
4756;SDS011;2392;52.578;13.426;2023-05-29T03:47:22;6.93;;;4.37;;
4756;SDS011;2392;52.578;13.426;2023-05-29T03:49:51;11.50;;;4.90;;
4756;SDS011;2392;52.578;13.426;2023-05-29T03:52:18;7.07;;;4.47;;
4756;SDS011;2392;52.578;13.426;2023-05-29T03:54:46;10.63;;;4.10;;
4756;SDS011;2392;52.578;13.426;2023-05-29T03:57:13;10.93;;;4.40;;
4756;SDS011;2392;52.578;13.426;2023-05-29T03:59:42;6.57;;;4.90;;
4756;SDS011;2392;52.578;13.426;2023-05-29T04:02:10;6.30;;;3.70;;
4756;SDS011;2392;52.578;13.426;2023-05-29T04:04:38;6.27;;;3.67;;
4756;SDS011;2392;52.578;13.426;2023-05-29T04:07:05;7.17;;;4.13;;
4756;SDS011;2392;52.578;13.426;2023-05-29T04:09:33;7.17;;;4.20;;
4756;SDS011;2392;52.578;13.426;2023-05-29T04:12:00;6.50;;;3.80;;
4756;SDS011;2392;52.578;13.426;2023-05-29T04:14:27;7.60;;;4.67;;
4756;SDS011;2392;52.578;13.426;2023-05-29T04:16:55;8.50;;;4.80;;
4756;SDS011;2392;52.578;13.426;2023-05-29T04:19:22;4.53;;;3.63;;
4756;SDS011;2392;52.578;13.426;2023-05-29T04:21:52;10.17;;;3.93;;
4756;SDS011;2392;52.578;13.426;2023-05-29T04:24:19;5.00;;;3.80;;
4756;SDS011;2392;52.578;13.426;2023-05-29T04:26:46;9.13;;;4.17;;
4756;SDS011;2392;52.578;13.426;2023-05-29T04:29:13;8.17;;;3.90;;
4756;SDS011;2392;52.578;13.426;2023-05-29T04:31:41;5.40;;;3.60;;
4756;SDS011;2392;52.578;13.426;2023-05-29T04:34:09;4.33;;;3.47;;
4756;SDS011;2392;52.578;13.426;2023-05-29T04:36:37;7.80;;;4.50;;
4756;SDS011;2392;52.578;13.426;2023-05-29T04:39:11;9.50;;;4.03;;
4756;SDS011;2392;52.578;13.426;2023-05-29T04:41:39;6.53;;;4.10;;
4756;SDS011;2392;52.578;13.426;2023-05-29T04:44:09;5.80;;;3.80;;
4756;SDS011;2392;52.578;13.426;2023-05-29T04:46:49;4.20;;;3.80;;
4756;SDS011;2392;52.578;13.426;2023-05-29T04:49:17;8.30;;;4.30;;
4756;SDS011;2392;52.578;13.426;2023-05-29T04:51:46;5.90;;;4.23;;
4756;SDS011;2392;52.578;13.426;2023-05-29T04:54:14;5.37;;;4.47;;
4756;SDS011;2392;52.578;13.426;2023-05-29T04:56:41;5.47;;;3.97;;
4756;SDS011;2392;52.578;13.426;2023-05-29T04:59:12;7.00;;;3.90;;
4756;SDS011;2392;52.578;13.426;2023-05-29T05:01:39;7.17;;;3.93;;
4756;SDS011;2392;52.578;13.426;2023-05-29T05:04:08;5.67;;;4.10;;
4756;SDS011;2392;52.578;13.426;2023-05-29T05:06:36;5.07;;;3.63;;
4756;SDS011;2392;52.578;13.426;2023-05-29T05:09:04;5.43;;;3.43;;
4756;SDS011;2392;52.578;13.426;2023-05-29T05:11:33;4.00;;;3.60;;
4756;SDS011;2392;52.578;13.426;2023-05-29T05:14:04;5.00;;;3.40;;
4756;SDS011;2392;52.578;13.426;2023-05-29T05:16:31;6.30;;;3.77;;
4756;SDS011;2392;52.578;13.426;2023-05-29T05:18:59;7.07;;;4.00;;
4756;SDS011;2392;52.578;13.426;2023-05-29T05:21:30;3.90;;;3.20;;
4756;SDS011;2392;52.578;13.426;2023-05-29T05:23:58;5.90;;;3.73;;
4756;SDS011;2392;52.578;13.426;2023-05-29T05:26:26;5.93;;;3.90;;
4756;SDS011;2392;52.578;13.426;2023-05-29T05:28:55;5.03;;;3.67;;
4756;SDS011;2392;52.578;13.426;2023-05-29T05:31:26;5.80;;;3.40;;
4756;SDS011;2392;52.578;13.426;2023-05-29T05:33:53;4.13;;;3.20;;
4756;SDS011;2392;52.578;13.426;2023-05-29T05:36:20;6.90;;;3.67;;
4756;SDS011;2392;52.578;13.426;2023-05-29T05:38:53;5.10;;;2.70;;
4756;SDS011;2392;52.578;13.426;2023-05-29T05:41:21;4.03;;;3.07;;
4756;SDS011;2392;52.578;13.426;2023-05-29T05:43:49;4.90;;;2.90;;
4756;SDS011;2392;52.578;13.426;2023-05-29T05:46:29;5.57;;;3.77;;
4756;SDS011;2392;52.578;13.426;2023-05-29T05:48:56;3.83;;;2.97;;
4756;SDS011;2392;52.578;13.426;2023-05-29T05:51:24;4.90;;;2.23;;
4756;SDS011;2392;52.578;13.426;2023-05-29T05:53:52;4.93;;;2.70;;
4756;SDS011;2392;52.578;13.426;2023-05-29T05:56:19;5.90;;;2.80;;
4756;SDS011;2392;52.578;13.426;2023-05-29T05:58:46;4.80;;;3.10;;
4756;SDS011;2392;52.578;13.426;2023-05-29T06:01:18;3.20;;;2.70;;
4756;SDS011;2392;52.578;13.426;2023-05-29T06:03:46;5.50;;;2.60;;
4756;SDS011;2392;52.578;13.426;2023-05-29T06:06:13;5.17;;;3.13;;
4756;SDS011;2392;52.578;13.426;2023-05-29T06:08:42;3.50;;;2.30;;
4756;SDS011;2392;52.578;13.426;2023-05-29T06:11:11;6.03;;;2.50;;
4756;SDS011;2392;52.578;13.426;2023-05-29T06:13:41;10.13;;;2.83;;
4756;SDS011;2392;52.578;13.426;2023-05-29T06:16:15;4.33;;;2.83;;
4756;SDS011;2392;52.578;13.426;2023-05-29T06:18:43;4.23;;;2.87;;
4756;SDS011;2392;52.578;13.426;2023-05-29T06:21:12;3.67;;;3.33;;
4756;SDS011;2392;52.578;13.426;2023-05-29T06:23:50;3.27;;;2.80;;
4756;SDS011;2392;52.578;13.426;2023-05-29T06:26:17;3.53;;;2.90;;
4756;SDS011;2392;52.578;13.426;2023-05-29T06:28:44;3.50;;;2.50;;
4756;SDS011;2392;52.578;13.426;2023-05-29T06:31:12;4.00;;;2.60;;
4756;SDS011;2392;52.578;13.426;2023-05-29T06:33:39;4.70;;;2.73;;
4756;SDS011;2392;52.578;13.426;2023-05-29T06:36:06;2.37;;;2.27;;
4756;SDS011;2392;52.578;13.426;2023-05-29T06:38:36;5.13;;;3.37;;
4756;SDS011;2392;52.578;13.426;2023-05-29T06:41:03;6.77;;;3.00;;
4756;SDS011;2392;52.578;13.426;2023-05-29T06:43:32;5.97;;;3.87;;
4756;SDS011;2392;52.578;13.426;2023-05-29T06:46:02;3.70;;;2.57;;
4756;SDS011;2392;52.578;13.426;2023-05-29T06:48:32;3.37;;;2.80;;
4756;SDS011;2392;52.578;13.426;2023-05-29T06:50:59;3.17;;;2.57;;
4756;SDS011;2392;52.578;13.426;2023-05-29T06:53:40;3.93;;;2.60;;
4756;SDS011;2392;52.578;13.426;2023-05-29T06:56:10;2.40;;;2.13;;
4756;SDS011;2392;52.578;13.426;2023-05-29T06:58:38;6.97;;;2.60;;
4756;SDS011;2392;52.578;13.426;2023-05-29T07:01:06;3.43;;;2.70;;
4756;SDS011;2392;52.578;13.426;2023-05-29T07:03:34;6.13;;;2.70;;
4756;SDS011;2392;52.578;13.426;2023-05-29T07:06:03;3.80;;;2.30;;
4756;SDS011;2392;52.578;13.426;2023-05-29T07:08:32;2.03;;;1.90;;
4756;SDS011;2392;52.578;13.426;2023-05-29T07:11:00;5.27;;;2.87;;
4756;SDS011;2392;52.578;13.426;2023-05-29T07:13:27;4.10;;;2.50;;
4756;SDS011;2392;52.578;13.426;2023-05-29T07:15:54;4.40;;;2.40;;
4756;SDS011;2392;52.578;13.426;2023-05-29T07:18:30;2.07;;;1.90;;
4756;SDS011;2392;52.578;13.426;2023-05-29T07:20:59;2.83;;;2.20;;
4756;SDS011;2392;52.578;13.426;2023-05-29T07:23:28;5.97;;;2.53;;
4756;SDS011;2392;52.578;13.426;2023-05-29T07:25:55;3.67;;;2.57;;
4756;SDS011;2392;52.578;13.426;2023-05-29T07:28:25;4.90;;;2.47;;
4756;SDS011;2392;52.578;13.426;2023-05-29T07:30:53;5.57;;;2.67;;
4756;SDS011;2392;52.578;13.426;2023-05-29T07:33:20;3.40;;;2.33;;
4756;SDS011;2392;52.578;13.426;2023-05-29T07:35:47;2.43;;;2.13;;
4756;SDS011;2392;52.578;13.426;2023-05-29T07:38:15;2.67;;;2.47;;
4756;SDS011;2392;52.578;13.426;2023-05-29T07:40:42;4.23;;;2.20;;
4756;SDS011;2392;52.578;13.426;2023-05-29T07:43:26;2.30;;;2.10;;
4756;SDS011;2392;52.578;13.426;2023-05-29T07:45:57;2.67;;;2.30;;
4756;SDS011;2392;52.578;13.426;2023-05-29T07:48:24;2.60;;;2.40;;
4756;SDS011;2392;52.578;13.426;2023-05-29T07:50:51;2.70;;;2.23;;
4756;SDS011;2392;52.578;13.426;2023-05-29T07:53:18;5.37;;;2.60;;
4756;SDS011;2392;52.578;13.426;2023-05-29T07:55:46;3.00;;;2.10;;
4756;SDS011;2392;52.578;13.426;2023-05-29T07:58:14;3.90;;;2.30;;
4756;SDS011;2392;52.578;13.426;2023-05-29T08:00:43;4.10;;;2.23;;
4756;SDS011;2392;52.578;13.426;2023-05-29T08:03:11;11.30;;;2.70;;
4756;SDS011;2392;52.578;13.426;2023-05-29T08:06:05;5.40;;;2.30;;
4756;SDS011;2392;52.578;13.426;2023-05-29T08:08:33;2.60;;;2.30;;
4756;SDS011;2392;52.578;13.426;2023-05-29T08:11:00;2.53;;;2.33;;
4756;SDS011;2392;52.578;13.426;2023-05-29T08:13:29;3.40;;;3.10;;
4756;SDS011;2392;52.578;13.426;2023-05-29T08:15:57;2.40;;;2.20;;
4756;SDS011;2392;52.578;13.426;2023-05-29T08:18:25;2.33;;;2.23;;
4756;SDS011;2392;52.578;13.426;2023-05-29T08:20:52;2.13;;;1.93;;
4756;SDS011;2392;52.578;13.426;2023-05-29T08:23:19;6.97;;;2.70;;
4756;SDS011;2392;52.578;13.426;2023-05-29T08:25:46;2.10;;;1.90;;
4756;SDS011;2392;52.578;13.426;2023-05-29T08:28:14;4.30;;;2.40;;
4756;SDS011;2392;52.578;13.426;2023-05-29T08:30:41;3.60;;;2.20;;
4756;SDS011;2392;52.578;13.426;2023-05-29T08:33:09;3.77;;;2.40;;
4756;SDS011;2392;52.578;13.426;2023-05-29T08:35:36;5.63;;;2.50;;
4756;SDS011;2392;52.578;13.426;2023-05-29T08:38:03;2.50;;;2.30;;
4756;SDS011;2392;52.578;13.426;2023-05-29T08:40:30;2.60;;;2.40;;
4756;SDS011;2392;52.578;13.426;2023-05-29T08:42:58;3.83;;;2.30;;
4756;SDS011;2392;52.578;13.426;2023-05-29T08:45:29;4.47;;;2.43;;
4756;SDS011;2392;52.578;13.426;2023-05-29T08:48:00;4.80;;;2.43;;
4756;SDS011;2392;52.578;13.426;2023-05-29T08:50:29;5.60;;;3.17;;
4756;SDS011;2392;52.578;13.426;2023-05-29T08:52:56;2.67;;;2.17;;
4756;SDS011;2392;52.578;13.426;2023-05-29T08:55:23;2.60;;;2.20;;
4756;SDS011;2392;52.578;13.426;2023-05-29T08:57:50;2.60;;;2.40;;
4756;SDS011;2392;52.578;13.426;2023-05-29T09:00:18;2.17;;;2.07;;
4756;SDS011;2392;52.578;13.426;2023-05-29T09:02:47;2.60;;;2.40;;
4756;SDS011;2392;52.578;13.426;2023-05-29T09:05:14;4.37;;;2.57;;
4756;SDS011;2392;52.578;13.426;2023-05-29T09:07:43;2.60;;;2.43;;
4756;SDS011;2392;52.578;13.426;2023-05-29T09:10:12;3.73;;;2.63;;
4756;SDS011;2392;52.578;13.426;2023-05-29T09:12:40;3.63;;;2.60;;
4756;SDS011;2392;52.578;13.426;2023-05-29T09:15:08;3.47;;;2.63;;
4756;SDS011;2392;52.578;13.426;2023-05-29T09:17:44;5.90;;;2.97;;
4756;SDS011;2392;52.578;13.426;2023-05-29T09:20:17;5.80;;;2.73;;
4756;SDS011;2392;52.578;13.426;2023-05-29T09:22:53;3.23;;;2.93;;
4756;SDS011;2392;52.578;13.426;2023-05-29T09:25:22;3.67;;;2.63;;
4756;SDS011;2392;52.578;13.426;2023-05-29T09:27:54;3.97;;;2.70;;
4756;SDS011;2392;52.578;13.426;2023-05-29T09:30:35;4.00;;;2.90;;
4756;SDS011;2392;52.578;13.426;2023-05-29T09:33:03;2.40;;;2.20;;
4756;SDS011;2392;52.578;13.426;2023-05-29T09:35:32;3.97;;;2.50;;
4756;SDS011;2392;52.578;13.426;2023-05-29T09:38:04;3.40;;;2.73;;
4756;SDS011;2392;52.578;13.426;2023-05-29T09:40:32;3.93;;;2.60;;
4756;SDS011;2392;52.578;13.426;2023-05-29T09:43:03;3.90;;;2.30;;
4756;SDS011;2392;52.578;13.426;2023-05-29T09:45:33;3.87;;;3.10;;
4756;SDS011;2392;52.578;13.426;2023-05-29T09:48:03;2.90;;;2.53;;
4756;SDS011;2392;52.578;13.426;2023-05-29T09:50:33;2.90;;;2.70;;
4756;SDS011;2392;52.578;13.426;2023-05-29T09:53:00;3.00;;;2.60;;
4756;SDS011;2392;52.578;13.426;2023-05-29T09:55:29;2.53;;;2.33;;
4756;SDS011;2392;52.578;13.426;2023-05-29T09:57:59;2.60;;;2.40;;
4756;SDS011;2392;52.578;13.426;2023-05-29T10:00:27;5.13;;;2.83;;
4756;SDS011;2392;52.578;13.426;2023-05-29T10:02:56;4.77;;;2.73;;
4756;SDS011;2392;52.578;13.426;2023-05-29T10:05:23;2.40;;;2.20;;
4756;SDS011;2392;52.578;13.426;2023-05-29T10:07:51;8.13;;;3.13;;
4756;SDS011;2392;52.578;13.426;2023-05-29T10:10:20;4.00;;;2.53;;
4756;SDS011;2392;52.578;13.426;2023-05-29T10:12:53;4.90;;;2.73;;
4756;SDS011;2392;52.578;13.426;2023-05-29T10:15:23;3.77;;;2.60;;
4756;SDS011;2392;52.578;13.426;2023-05-29T10:17:57;3.80;;;2.43;;
4756;SDS011;2392;52.578;13.426;2023-05-29T10:20:27;4.33;;;2.40;;
4756;SDS011;2392;52.578;13.426;2023-05-29T10:22:56;4.53;;;2.60;;
4756;SDS011;2392;52.578;13.426;2023-05-29T10:25:26;2.93;;;2.50;;
4756;SDS011;2392;52.578;13.426;2023-05-29T10:27:57;3.13;;;2.57;;
4756;SDS011;2392;52.578;13.426;2023-05-29T10:30:28;3.07;;;2.53;;
4756;SDS011;2392;52.578;13.426;2023-05-29T10:36:18;2.03;;;1.93;;
4756;SDS011;2392;52.578;13.426;2023-05-29T10:38:49;2.60;;;2.40;;
4756;SDS011;2392;52.578;13.426;2023-05-29T10:41:30;2.30;;;2.20;;
4756;SDS011;2392;52.578;13.426;2023-05-29T10:44:00;2.90;;;2.70;;
4756;SDS011;2392;52.578;13.426;2023-05-29T10:49:29;3.70;;;2.70;;
4756;SDS011;2392;52.578;13.426;2023-05-29T10:51:57;2.60;;;2.40;;
4756;SDS011;2392;52.578;13.426;2023-05-29T10:54:25;3.27;;;2.97;;
4756;SDS011;2392;52.578;13.426;2023-05-29T10:56:53;5.50;;;2.77;;
4756;SDS011;2392;52.578;13.426;2023-05-29T10:59:23;2.70;;;2.20;;
4756;SDS011;2392;52.578;13.426;2023-05-29T11:01:52;2.70;;;2.50;;
4756;SDS011;2392;52.578;13.426;2023-05-29T11:04:26;1.90;;;1.73;;
4756;SDS011;2392;52.578;13.426;2023-05-29T11:06:55;2.20;;;2.00;;
4756;SDS011;2392;52.578;13.426;2023-05-29T11:09:26;10.00;;;2.70;;
4756;SDS011;2392;52.578;13.426;2023-05-29T11:12:12;2.30;;;2.10;;
4756;SDS011;2392;52.578;13.426;2023-05-29T11:14:54;3.70;;;2.50;;
4756;SDS011;2392;52.578;13.426;2023-05-29T11:17:29;2.20;;;2.10;;
4756;SDS011;2392;52.578;13.426;2023-05-29T11:20:09;3.37;;;2.97;;
4756;SDS011;2392;52.578;13.426;2023-05-29T11:22:48;2.97;;;2.20;;
4756;SDS011;2392;52.578;13.426;2023-05-29T11:25:27;2.53;;;2.13;;
4756;SDS011;2392;52.578;13.426;2023-05-29T11:27:54;3.27;;;2.60;;
4756;SDS011;2392;52.578;13.426;2023-05-29T11:30:24;10.03;;;2.50;;
4756;SDS011;2392;52.578;13.426;2023-05-29T11:32:51;3.50;;;2.60;;
4756;SDS011;2392;52.578;13.426;2023-05-29T11:35:21;3.63;;;2.70;;
4756;SDS011;2392;52.578;13.426;2023-05-29T11:37:48;4.63;;;2.30;;
4756;SDS011;2392;52.578;13.426;2023-05-29T11:40:15;5.03;;;2.67;;
4756;SDS011;2392;52.578;13.426;2023-05-29T11:42:43;3.97;;;2.73;;
4756;SDS011;2392;52.578;13.426;2023-05-29T11:45:14;2.70;;;2.50;;
4756;SDS011;2392;52.578;13.426;2023-05-29T11:47:53;6.13;;;3.30;;
4756;SDS011;2392;52.578;13.426;2023-05-29T11:50:20;3.40;;;2.17;;
4756;SDS011;2392;52.578;13.426;2023-05-29T11:52:48;3.63;;;2.50;;
4756;SDS011;2392;52.578;13.426;2023-05-29T11:55:17;5.10;;;3.23;;
4756;SDS011;2392;52.578;13.426;2023-05-29T11:57:45;5.17;;;3.00;;
4756;SDS011;2392;52.578;13.426;2023-05-29T12:00:13;3.57;;;2.93;;
4756;SDS011;2392;52.578;13.426;2023-05-29T12:02:40;3.13;;;2.60;;
4756;SDS011;2392;52.578;13.426;2023-05-29T12:05:10;2.63;;;2.43;;
4756;SDS011;2392;52.578;13.426;2023-05-29T12:07:46;4.07;;;3.00;;
4756;SDS011;2392;52.578;13.426;2023-05-29T12:10:15;2.87;;;2.30;;
4756;SDS011;2392;52.578;13.426;2023-05-29T12:12:46;4.10;;;2.80;;
4756;SDS011;2392;52.578;13.426;2023-05-29T12:15:14;4.20;;;2.50;;
4756;SDS011;2392;52.578;13.426;2023-05-29T12:17:42;4.40;;;2.83;;
4756;SDS011;2392;52.578;13.426;2023-05-29T12:20:12;4.27;;;2.97;;
4756;SDS011;2392;52.578;13.426;2023-05-29T12:22:40;3.43;;;2.60;;
4756;SDS011;2392;52.578;13.426;2023-05-29T12:25:09;4.30;;;2.87;;
4756;SDS011;2392;52.578;13.426;2023-05-29T12:27:37;3.43;;;2.63;;
4756;SDS011;2392;52.578;13.426;2023-05-29T12:30:09;4.57;;;2.53;;
4756;SDS011;2392;52.578;13.426;2023-05-29T12:32:37;5.30;;;3.03;;
4756;SDS011;2392;52.578;13.426;2023-05-29T12:35:13;3.97;;;2.87;;
4756;SDS011;2392;52.578;13.426;2023-05-29T12:37:43;3.97;;;2.33;;
4756;SDS011;2392;52.578;13.426;2023-05-29T12:40:15;4.13;;;2.70;;
4756;SDS011;2392;52.578;13.426;2023-05-29T12:42:43;3.47;;;3.00;;
4756;SDS011;2392;52.578;13.426;2023-05-29T12:45:11;3.17;;;2.90;;
4756;SDS011;2392;52.578;13.426;2023-05-29T12:47:44;10.60;;;3.00;;
4756;SDS011;2392;52.578;13.426;2023-05-29T12:50:24;5.23;;;2.70;;
4756;SDS011;2392;52.578;13.426;2023-05-29T12:52:55;5.67;;;2.93;;
4756;SDS011;2392;52.578;13.426;2023-05-29T12:55:23;2.70;;;2.50;;
4756;SDS011;2392;52.578;13.426;2023-05-29T12:57:50;5.43;;;3.60;;
4756;SDS011;2392;52.578;13.426;2023-05-29T13:00:18;3.63;;;2.50;;
4756;SDS011;2392;52.578;13.426;2023-05-29T13:02:46;3.77;;;2.63;;
4756;SDS011;2392;52.578;13.426;2023-05-29T13:05:14;5.70;;;3.00;;
4756;SDS011;2392;52.578;13.426;2023-05-29T13:07:45;6.53;;;2.90;;
4756;SDS011;2392;52.578;13.426;2023-05-29T13:10:13;5.40;;;2.90;;
4756;SDS011;2392;52.578;13.426;2023-05-29T13:12:40;5.60;;;2.80;;
4756;SDS011;2392;52.578;13.426;2023-05-29T13:15:07;5.53;;;3.17;;
4756;SDS011;2392;52.578;13.426;2023-05-29T13:17:36;3.60;;;2.80;;
4756;SDS011;2392;52.578;13.426;2023-05-29T13:20:06;3.83;;;2.30;;
4756;SDS011;2392;52.578;13.426;2023-05-29T13:22:35;7.03;;;3.43;;
4756;SDS011;2392;52.578;13.426;2023-05-29T13:25:03;4.17;;;2.33;;
4756;SDS011;2392;52.578;13.426;2023-05-29T13:27:32;5.03;;;2.73;;
4756;SDS011;2392;52.578;13.426;2023-05-29T13:30:00;4.60;;;2.17;;
4756;SDS011;2392;52.578;13.426;2023-05-29T13:32:28;4.10;;;2.43;;
4756;SDS011;2392;52.578;13.426;2023-05-29T13:34:55;4.17;;;2.30;;
4756;SDS011;2392;52.578;13.426;2023-05-29T13:37:22;4.23;;;2.70;;
4756;SDS011;2392;52.578;13.426;2023-05-29T13:39:49;3.73;;;2.73;;
4756;SDS011;2392;52.578;13.426;2023-05-29T13:42:18;2.67;;;2.40;;
4756;SDS011;2392;52.578;13.426;2023-05-29T13:44:46;3.80;;;2.40;;
4756;SDS011;2392;52.578;13.426;2023-05-29T13:47:14;4.17;;;2.67;;
4756;SDS011;2392;52.578;13.426;2023-05-29T13:49:41;2.90;;;2.60;;
4756;SDS011;2392;52.578;13.426;2023-05-29T13:52:08;5.10;;;2.50;;
4756;SDS011;2392;52.578;13.426;2023-05-29T13:54:35;3.73;;;2.70;;
4756;SDS011;2392;52.578;13.426;2023-05-29T13:57:03;4.57;;;3.00;;
4756;SDS011;2392;52.578;13.426;2023-05-29T13:59:32;7.13;;;3.00;;
4756;SDS011;2392;52.578;13.426;2023-05-29T14:02:01;12.30;;;2.80;;
4756;SDS011;2392;52.578;13.426;2023-05-29T14:04:29;2.67;;;2.40;;
4756;SDS011;2392;52.578;13.426;2023-05-29T14:06:56;6.40;;;2.90;;
4756;SDS011;2392;52.578;13.426;2023-05-29T14:09:23;4.43;;;3.00;;
4756;SDS011;2392;52.578;13.426;2023-05-29T14:11:53;3.77;;;2.30;;
4756;SDS011;2392;52.578;13.426;2023-05-29T14:14:20;4.60;;;2.77;;
4756;SDS011;2392;52.578;13.426;2023-05-29T14:16:48;3.47;;;2.40;;
4756;SDS011;2392;52.578;13.426;2023-05-29T14:19:16;5.63;;;2.40;;
4756;SDS011;2392;52.578;13.426;2023-05-29T14:21:44;3.40;;;2.40;;
4756;SDS011;2392;52.578;13.426;2023-05-29T14:24:11;7.63;;;2.60;;
4756;SDS011;2392;52.578;13.426;2023-05-29T14:26:40;4.00;;;2.80;;
4756;SDS011;2392;52.578;13.426;2023-05-29T14:29:10;2.90;;;2.30;;
4756;SDS011;2392;52.578;13.426;2023-05-29T14:31:38;6.83;;;2.40;;
4756;SDS011;2392;52.578;13.426;2023-05-29T14:34:06;4.77;;;2.63;;
4756;SDS011;2392;52.578;13.426;2023-05-29T14:36:33;5.73;;;2.73;;
4756;SDS011;2392;52.578;13.426;2023-05-29T14:39:01;5.30;;;2.57;;
4756;SDS011;2392;52.578;13.426;2023-05-29T14:41:28;4.50;;;3.53;;
4756;SDS011;2392;52.578;13.426;2023-05-29T14:43:55;6.83;;;2.50;;
4756;SDS011;2392;52.578;13.426;2023-05-29T14:46:23;4.70;;;2.57;;
4756;SDS011;2392;52.578;13.426;2023-05-29T14:48:51;4.13;;;2.20;;
4756;SDS011;2392;52.578;13.426;2023-05-29T14:51:20;2.53;;;2.23;;
4756;SDS011;2392;52.578;13.426;2023-05-29T14:53:49;6.97;;;2.57;;
4756;SDS011;2392;52.578;13.426;2023-05-29T14:56:16;5.47;;;3.40;;
4756;SDS011;2392;52.578;13.426;2023-05-29T14:58:44;7.23;;;2.60;;
4756;SDS011;2392;52.578;13.426;2023-05-29T15:01:13;8.07;;;2.70;;
4756;SDS011;2392;52.578;13.426;2023-05-29T15:03:40;5.00;;;2.00;;
4756;SDS011;2392;52.578;13.426;2023-05-29T15:06:08;5.93;;;2.50;;
4756;SDS011;2392;52.578;13.426;2023-05-29T15:08:38;4.57;;;2.17;;
4756;SDS011;2392;52.578;13.426;2023-05-29T15:11:07;8.50;;;3.00;;
4756;SDS011;2392;52.578;13.426;2023-05-29T15:13:34;2.23;;;1.93;;
4756;SDS011;2392;52.578;13.426;2023-05-29T15:16:01;7.57;;;2.20;;
4756;SDS011;2392;52.578;13.426;2023-05-29T15:18:29;2.30;;;2.10;;